首页
METAR-TAF:

METAR-TAF

机场 :

普拉, 克罗地亚

纬度: 44-54N, 经度: 013-55E, 海拔: 63米

当前天气观测

该预报发布于37分钟前的11:00 UTC
风速4节,风向西转西北,在西转西南西北之间变化
温度 9°C
湿度 93%
气压 1021 hPa
能見度: 5000
散云层高于900英尺
阴天层高于1400英尺
轻雾

METAR: LDPL 261100Z 29004KT 250V320 5000 BR SCT009 OVC014 09/08 Q1021 TEMPO 6000 NSW

时间: 12:37 (11:37 UTC)

预报

该预报发布于3小时和21分钟前的08:16 UTC
预报有效从26日的 08点(UTC)到 27日的 06点(UTC)
风速2节,风向多变
能見度: 3000
阴天层高于800英尺
轻雾
成为
从 26日的 10点(UTC)到 26日的 12点(UTC)
能見度: 7000
多云层高于1500英尺
短暂存在
从 26日的 12点(UTC)到 27日的 06点(UTC)
能見度: 3000
多云层高于800英尺
轻雾
成为
从 26日的 14点(UTC)到 26日的 16点(UTC)
风速7节,风向西转西北

TAF: LDPL 260816Z 2608/2706 VRB02KT 3000 BR OVC008 TX12/2613Z TN06/2705Z BECMG 2610/2612 7000 NSW BKN015 TEMPO 2612/2706 3000 BR BKN008 BECMG 2614/2616 30007KT

超过4000个机场的气象观测和天气预报(METAR&TAF报告)。

可查询的气象台以黄色和红色小点在地图上表示。

将鼠标移到小点上方,可查看气象台名称。

然后点击查看天气观测和预报。

如需切换地图:点击带黑十字的绿色按钮放大地图;点击带横线的绿色按钮缩小地图;或者点击绿色箭头查看邻近地区的地图。


METAR-TAF: